sensor_id;sensor_type;location;lat;lon;timestamp;P1;durP1;ratioP1;P2;durP2;ratioP2
59314;SDS011;46521;50.160;20.802;2023-03-04T00:15:07;39.05;;;16.30;;
59314;SDS011;46521;50.160;20.802;2023-03-04T00:25:09;47.70;;;20.05;;
59314;SDS011;46521;50.160;20.802;2023-03-04T00:35:10;48.50;;;21.70;;
59314;SDS011;46521;50.160;20.802;2023-03-04T00:45:12;41.50;;;17.30;;
59314;SDS011;46521;50.160;20.802;2023-03-04T00:55:13;44.90;;;20.45;;
59314;SDS011;46521;50.160;20.802;2023-03-04T01:05:14;49.70;;;20.50;;
59314;SDS011;46521;50.160;20.802;2023-03-04T01:15:16;47.75;;;20.40;;
59314;SDS011;46521;50.160;20.802;2023-03-04T01:25:18;44.10;;;18.00;;
59314;SDS011;46521;50.160;20.802;2023-03-04T01:35:19;45.60;;;20.00;;
59314;SDS011;46521;50.160;20.802;2023-03-04T01:45:21;51.77;;;20.60;;
59314;SDS011;46521;50.160;20.802;2023-03-04T01:55:22;47.50;;;21.20;;
59314;SDS011;46521;50.160;20.802;2023-03-04T02:05:24;44.20;;;17.70;;
59314;SDS011;46521;50.160;20.802;2023-03-04T02:15:28;43.40;;;18.05;;
59314;SDS011;46521;50.160;20.802;2023-03-04T02:25:32;46.87;;;20.20;;
59314;SDS011;46521;50.160;20.802;2023-03-04T02:35:39;45.50;;;19.10;;
59314;SDS011;46521;50.160;20.802;2023-03-04T02:45:50;41.63;;;18.43;;
59314;SDS011;46521;50.160;20.802;2023-03-04T02:55:51;45.90;;;19.10;;
59314;SDS011;46521;50.160;20.802;2023-03-04T03:05:53;42.60;;;19.20;;
59314;SDS011;46521;50.160;20.802;2023-03-04T03:15:55;41.90;;;16.40;;
59314;SDS011;46521;50.160;20.802;2023-03-04T03:25:56;44.80;;;19.50;;
59314;SDS011;46521;50.160;20.802;2023-03-04T03:35:58;42.50;;;18.40;;
59314;SDS011;46521;50.160;20.802;2023-03-04T03:46:00;42.20;;;17.50;;
59314;SDS011;46521;50.160;20.802;2023-03-04T03:56:01;41.95;;;19.25;;
59314;SDS011;46521;50.160;20.802;2023-03-04T04:06:02;45.70;;;17.60;;
59314;SDS011;46521;50.160;20.802;2023-03-04T04:16:04;42.80;;;18.05;;
59314;SDS011;46521;50.160;20.802;2023-03-04T04:26:06;37.40;;;15.60;;
59314;SDS011;46521;50.160;20.802;2023-03-04T04:36:09;37.80;;;17.20;;
59314;SDS011;46521;50.160;20.802;2023-03-04T04:46:14;44.30;;;18.80;;
59314;SDS011;46521;50.160;20.802;2023-03-04T04:56:17;37.70;;;16.70;;
59314;SDS011;46521;50.160;20.802;2023-03-04T05:06:21;45.20;;;17.70;;
59314;SDS011;46521;50.160;20.802;2023-03-04T05:16:24;38.50;;;17.00;;
59314;SDS011;46521;50.160;20.802;2023-03-04T05:26:25;43.80;;;18.83;;
59314;SDS011;46521;50.160;20.802;2023-03-04T05:36:27;41.50;;;18.50;;
59314;SDS011;46521;50.160;20.802;2023-03-04T05:46:28;39.53;;;18.27;;
59314;SDS011;46521;50.160;20.802;2023-03-04T05:56:30;41.65;;;17.75;;
59314;SDS011;46521;50.160;20.802;2023-03-04T06:06:33;43.10;;;19.40;;
59314;SDS011;46521;50.160;20.802;2023-03-04T06:16:34;38.20;;;18.50;;
59314;SDS011;46521;50.160;20.802;2023-03-04T06:26:36;37.30;;;17.30;;
59314;SDS011;46521;50.160;20.802;2023-03-04T06:46:39;34.00;;;16.75;;
59314;SDS011;46521;50.160;20.802;2023-03-04T06:56:40;42.70;;;18.20;;
59314;SDS011;46521;50.160;20.802;2023-03-04T07:06:41;40.60;;;19.00;;
59314;SDS011;46521;50.160;20.802;2023-03-04T07:16:43;43.65;;;20.15;;
59314;SDS011;46521;50.160;20.802;2023-03-04T07:26:44;39.80;;;18.45;;
59314;SDS011;46521;50.160;20.802;2023-03-04T07:36:46;42.10;;;19.60;;
59314;SDS011;46521;50.160;20.802;2023-03-04T07:46:47;45.30;;;19.40;;
59314;SDS011;46521;50.160;20.802;2023-03-04T07:56:49;38.35;;;17.80;;
59314;SDS011;46521;50.160;20.802;2023-03-04T08:06:50;53.90;;;22.30;;
59314;SDS011;46521;50.160;20.802;2023-03-04T08:16:52;40.80;;;17.70;;
59314;SDS011;46521;50.160;20.802;2023-03-04T08:26:53;37.10;;;15.80;;
59314;SDS011;46521;50.160;20.802;2023-03-04T08:36:55;46.07;;;21.77;;
59314;SDS011;46521;50.160;20.802;2023-03-04T08:46:56;41.55;;;19.50;;
59314;SDS011;46521;50.160;20.802;2023-03-04T08:56:58;38.63;;;18.07;;
59314;SDS011;46521;50.160;20.802;2023-03-04T09:06:59;40.65;;;19.75;;
59314;SDS011;46521;50.160;20.802;2023-03-04T09:17:04;41.50;;;19.95;;
59314;SDS011;46521;50.160;20.802;2023-03-04T09:27:07;42.00;;;20.70;;
59314;SDS011;46521;50.160;20.802;2023-03-04T09:37:09;45.00;;;21.70;;
59314;SDS011;46521;50.160;20.802;2023-03-04T09:47:11;40.20;;;19.70;;
59314;SDS011;46521;50.160;20.802;2023-03-04T09:57:32;37.70;;;19.80;;
59314;SDS011;46521;50.160;20.802;2023-03-04T10:07:48;38.40;;;20.10;;
59314;SDS011;46521;50.160;20.802;2023-03-04T10:28:30;39.40;;;18.75;;
59314;SDS011;46521;50.160;20.802;2023-03-04T10:38:36;35.55;;;19.55;;
59314;SDS011;46521;50.160;20.802;2023-03-04T10:48:41;34.33;;;19.23;;
59314;SDS011;46521;50.160;20.802;2023-03-04T10:58:44;34.45;;;17.60;;
59314;SDS011;46521;50.160;20.802;2023-03-04T11:08:56;32.95;;;16.65;;
59314;SDS011;46521;50.160;20.802;2023-03-04T11:19:03;31.75;;;16.45;;
59314;SDS011;46521;50.160;20.802;2023-03-04T11:39:43;35.13;;;17.77;;
59314;SDS011;46521;50.160;20.802;2023-03-04T12:00:47;33.70;;;18.15;;
59314;SDS011;46521;50.160;20.802;2023-03-04T12:32:02;42.15;;;20.90;;
59314;SDS011;46521;50.160;20.802;2023-03-04T13:03:07;40.55;;;19.65;;
59314;SDS011;46521;50.160;20.802;2023-03-04T13:23:35;38.20;;;17.70;;
59314;SDS011;46521;50.160;20.802;2023-03-04T13:43:49;38.80;;;18.90;;
59314;SDS011;46521;50.160;20.802;2023-03-04T13:53:52;49.35;;;23.85;;
59314;SDS011;46521;50.160;20.802;2023-03-04T14:04:01;31.90;;;16.25;;
59314;SDS011;46521;50.160;20.802;2023-03-04T14:14:17;39.10;;;19.30;;
59314;SDS011;46521;50.160;20.802;2023-03-04T14:24:21;36.53;;;18.83;;
59314;SDS011;46521;50.160;20.802;2023-03-04T14:34:25;34.25;;;17.15;;
59314;SDS011;46521;50.160;20.802;2023-03-04T14:44:42;35.30;;;17.00;;
59314;SDS011;46521;50.160;20.802;2023-03-04T14:54:58;33.65;;;15.15;;
59314;SDS011;46521;50.160;20.802;2023-03-04T15:05:09;26.27;;;13.90;;
59314;SDS011;46521;50.160;20.802;2023-03-04T15:15:32;35.33;;;18.03;;
59314;SDS011;46521;50.160;20.802;2023-03-04T15:25:35;37.45;;;17.50;;
59314;SDS011;46521;50.160;20.802;2023-03-04T15:35:36;36.20;;;19.00;;
59314;SDS011;46521;50.160;20.802;2023-03-04T15:45:39;31.75;;;16.05;;
59314;SDS011;46521;50.160;20.802;2023-03-04T15:55:42;33.60;;;18.17;;
59314;SDS011;46521;50.160;20.802;2023-03-04T16:05:46;32.80;;;16.80;;
59314;SDS011;46521;50.160;20.802;2023-03-04T16:15:49;30.45;;;14.95;;
59314;SDS011;46521;50.160;20.802;2023-03-04T16:25:52;30.70;;;15.15;;
59314;SDS011;46521;50.160;20.802;2023-03-04T16:35:56;25.15;;;13.25;;
59314;SDS011;46521;50.160;20.802;2023-03-04T16:45:58;30.55;;;14.85;;
59314;SDS011;46521;50.160;20.802;2023-03-04T16:56:00;34.00;;;13.80;;
59314;SDS011;46521;50.160;20.802;2023-03-04T17:06:10;27.80;;;14.90;;
59314;SDS011;46521;50.160;20.802;2023-03-04T17:16:13;30.10;;;15.20;;
59314;SDS011;46521;50.160;20.802;2023-03-04T17:26:17;24.20;;;13.10;;
59314;SDS011;46521;50.160;20.802;2023-03-04T17:36:22;26.30;;;12.50;;
59314;SDS011;46521;50.160;20.802;2023-03-04T17:46:25;25.20;;;14.10;;
59314;SDS011;46521;50.160;20.802;2023-03-04T17:56:28;29.53;;;14.67;;
59314;SDS011;46521;50.160;20.802;2023-03-04T18:06:32;29.20;;;14.03;;
59314;SDS011;46521;50.160;20.802;2023-03-04T18:16:33;22.25;;;11.30;;
59314;SDS011;46521;50.160;20.802;2023-03-04T18:26:35;23.70;;;10.80;;
59314;SDS011;46521;50.160;20.802;2023-03-04T18:36:36;26.40;;;11.95;;
59314;SDS011;46521;50.160;20.802;2023-03-04T19:06:50;29.40;;;14.10;;
59314;SDS011;46521;50.160;20.802;2023-03-04T19:16:52;24.70;;;12.40;;
59314;SDS011;46521;50.160;20.802;2023-03-04T19:26:53;33.35;;;16.95;;
59314;SDS011;46521;50.160;20.802;2023-03-04T19:36:55;39.60;;;21.30;;
59314;SDS011;46521;50.160;20.802;2023-03-04T19:46:56;34.75;;;17.35;;
59314;SDS011;46521;50.160;20.802;2023-03-04T19:56:59;38.05;;;19.60;;
59314;SDS011;46521;50.160;20.802;2023-03-04T20:07:00;36.40;;;17.90;;
59314;SDS011;46521;50.160;20.802;2023-03-04T20:17:03;30.20;;;15.95;;
59314;SDS011;46521;50.160;20.802;2023-03-04T20:27:06;25.75;;;13.85;;
59314;SDS011;46521;50.160;20.802;2023-03-04T20:37:08;22.35;;;11.45;;
59314;SDS011;46521;50.160;20.802;2023-03-04T20:47:09;22.00;;;11.20;;
59314;SDS011;46521;50.160;20.802;2023-03-04T20:57:11;22.55;;;11.10;;
59314;SDS011;46521;50.160;20.802;2023-03-04T21:07:12;18.80;;;9.50;;
59314;SDS011;46521;50.160;20.802;2023-03-04T21:17:14;24.70;;;13.10;;
59314;SDS011;46521;50.160;20.802;2023-03-04T21:27:15;22.80;;;12.40;;
59314;SDS011;46521;50.160;20.802;2023-03-04T21:37:18;20.90;;;11.50;;
59314;SDS011;46521;50.160;20.802;2023-03-04T21:47:23;16.83;;;8.40;;
59314;SDS011;46521;50.160;20.802;2023-03-04T21:57:25;17.55;;;7.30;;
59314;SDS011;46521;50.160;20.802;2023-03-04T22:07:26;12.05;;;5.65;;
59314;SDS011;46521;50.160;20.802;2023-03-04T22:17:28;12.95;;;5.25;;
59314;SDS011;46521;50.160;20.802;2023-03-04T22:27:29;13.60;;;6.20;;
59314;SDS011;46521;50.160;20.802;2023-03-04T22:37:31;13.20;;;5.80;;
59314;SDS011;46521;50.160;20.802;2023-03-04T22:47:32;14.20;;;6.20;;
59314;SDS011;46521;50.160;20.802;2023-03-04T22:57:34;13.20;;;5.05;;
59314;SDS011;46521;50.160;20.802;2023-03-04T23:07:35;10.65;;;4.25;;
59314;SDS011;46521;50.160;20.802;2023-03-04T23:17:37;11.70;;;5.15;;
59314;SDS011;46521;50.160;20.802;2023-03-04T23:27:39;10.00;;;4.30;;
59314;SDS011;46521;50.160;20.802;2023-03-04T23:37:41;9.60;;;4.35;;
59314;SDS011;46521;50.160;20.802;2023-03-04T23:47:42;14.00;;;5.55;;
